SIC0106 LICJ-LIML
Flight info
| Callsign | SIC0106 |
|---|---|
| Flight time | 1h 28m |
| Altitude | 38000 |
| Route | GIANO DCT KARDU DCT EMBOS DCT GIPIX DCT KALMO |
| Aircraft | B38M/M-SDE1FGHILORVWXY/HB1 |
Departure
| Time | 2026-05-01 13:29 |
|---|---|
| Airport | Falcone–Borsellino Airport (LICJ) |
Arrival
| Time | 2026-05-01 14:57 |
|---|---|
| Airport | Milano Linate Airport (LIML) |
| Time | Latitude | Longitude | Altitude | Speed | Heading |
|---|---|---|---|---|---|
| 2026-05-01 13:09 | 38.18327 | 13.10224 | 55 ft | 0 kts | 247° |
| 2026-05-01 13:24 | 38.18326 | 13.10222 | 55 ft | 1 kts | 231° |
| 2026-05-01 13:25 | 38.18298 | 13.10172 | 55 ft | 4 kts | 204° |
| 2026-05-01 13:25 | 38.18265 | 13.10156 | 52 ft | 6 kts | 192° |
| 2026-05-01 13:25 | 38.18218 | 13.10148 | 55 ft | 8 kts | 180° |
| 2026-05-01 13:25 | 38.18158 | 13.10128 | 52 ft | 10 kts | 225° |
| 2026-05-01 13:26 | 38.18108 | 13.10059 | 55 ft | 11 kts | 239° |
| 2026-05-01 13:26 | 38.18070 | 13.09967 | 52 ft | 13 kts | 243° |
| 2026-05-01 13:26 | 38.18034 | 13.09855 | 55 ft | 15 kts | 249° |
| 2026-05-01 13:26 | 38.17994 | 13.09723 | 54 ft | 17 kts | 249° |
| 2026-05-01 13:27 | 38.17949 | 13.09573 | 52 ft | 19 kts | 249° |
| 2026-05-01 13:27 | 38.17895 | 13.09412 | 54 ft | 20 kts | 245° |
| 2026-05-01 13:27 | 38.17773 | 13.09057 | 55 ft | 22 kts | 253° |
| 2026-05-01 13:28 | 38.17565 | 13.08771 | 53 ft | 20 kts | 193° |
| 2026-05-01 13:28 | 38.17504 | 13.08862 | 52 ft | 20 kts | 69° |
| 2026-05-01 13:29 | 38.18016 | 13.10334 | 53 ft | 153 kts | 63° |
| 2026-05-01 13:29 | 38.18987 | 13.13115 | 1273 ft | 180 kts | 65° |
| 2026-05-01 13:30 | 38.21649 | 13.19706 | 3776 ft | 241 kts | 36° |
| 2026-05-01 13:31 | 38.24768 | 13.21574 | 5477 ft | 250 kts | 22° |
| 2026-05-01 13:31 | 38.29737 | 13.24265 | 7899 ft | 266 kts | 20° |
| 2026-05-01 13:32 | 38.33179 | 13.26102 | 9528 ft | 274 kts | 19° |
| 2026-05-01 13:33 | 38.38784 | 13.28855 | 11091 ft | 310 kts | 4° |
| 2026-05-01 13:33 | 38.42865 | 13.27272 | 12240 ft | 320 kts | 319° |
| 2026-05-01 13:34 | 38.45579 | 13.22775 | 13883 ft | 326 kts | 306° |
| 2026-05-01 13:34 | 38.48178 | 13.17995 | 15464 ft | 330 kts | 305° |
| 2026-05-01 13:35 | 38.50790 | 13.13125 | 16980 ft | 335 kts | 304° |
| 2026-05-01 13:35 | 38.52112 | 13.10649 | 17695 ft | 339 kts | 304° |
| 2026-05-01 13:35 | 38.54785 | 13.05638 | 19094 ft | 344 kts | 304° |
| 2026-05-01 13:36 | 38.56126 | 13.03119 | 19750 ft | 345 kts | 304° |
| 2026-05-01 13:36 | 38.57024 | 13.01433 | 20176 ft | 346 kts | 304° |
| 2026-05-01 13:36 | 38.59746 | 12.96312 | 21422 ft | 350 kts | 304° |
| 2026-05-01 13:37 | 38.61121 | 12.93722 | 22031 ft | 353 kts | 304° |
| 2026-05-01 13:37 | 38.62499 | 12.91124 | 22625 ft | 355 kts | 304° |
| 2026-05-01 13:37 | 38.63888 | 12.88505 | 23275 ft | 357 kts | 304° |
| 2026-05-01 13:37 | 38.65283 | 12.85870 | 23936 ft | 356 kts | 304° |
| 2026-05-01 13:38 | 38.68074 | 12.80593 | 24858 ft | 361 kts | 303° |
| 2026-05-01 13:38 | 38.69485 | 12.77924 | 25333 ft | 363 kts | 303° |
| 2026-05-01 13:38 | 38.70901 | 12.75242 | 25716 ft | 366 kts | 304° |
| 2026-05-01 13:39 | 38.72339 | 12.72516 | 26096 ft | 370 kts | 303° |
| 2026-05-01 13:39 | 38.73778 | 12.69785 | 26554 ft | 371 kts | 303° |
| 2026-05-01 13:39 | 38.75228 | 12.67031 | 26983 ft | 374 kts | 303° |
| 2026-05-01 13:39 | 38.76687 | 12.64258 | 27400 ft | 376 kts | 303° |
| 2026-05-01 13:40 | 38.78151 | 12.61473 | 27818 ft | 378 kts | 303° |
| 2026-05-01 13:40 | 38.79606 | 12.58704 | 28218 ft | 381 kts | 303° |
| 2026-05-01 13:40 | 38.81086 | 12.55884 | 28621 ft | 383 kts | 303° |
| 2026-05-01 13:40 | 38.82578 | 12.53039 | 29015 ft | 385 kts | 302° |
| 2026-05-01 13:41 | 38.84068 | 12.50195 | 29403 ft | 387 kts | 302° |
| 2026-05-01 13:41 | 38.85609 | 12.47345 | 29773 ft | 390 kts | 307° |
| 2026-05-01 13:41 | 38.87645 | 12.45005 | 30199 ft | 399 kts | 322° |
| 2026-05-01 13:41 | 38.90183 | 12.43471 | 30593 ft | 408 kts | 333° |
| 2026-05-01 13:42 | 38.92857 | 12.42215 | 30957 ft | 410 kts | 333° |
| 2026-05-01 13:42 | 38.95548 | 12.40976 | 31325 ft | 410 kts | 333° |
| 2026-05-01 13:42 | 38.98240 | 12.39758 | 31708 ft | 410 kts | 334° |
| 2026-05-01 13:42 | 39.00945 | 12.38550 | 32094 ft | 410 kts | 334° |
| 2026-05-01 13:43 | 39.03637 | 12.37353 | 32517 ft | 409 kts | 334° |
| 2026-05-01 13:43 | 39.06325 | 12.36159 | 32939 ft | 408 kts | 334° |
| 2026-05-01 13:43 | 39.09003 | 12.34969 | 33351 ft | 408 kts | 334° |
| 2026-05-01 13:43 | 39.11689 | 12.33775 | 33773 ft | 407 kts | 334° |
| 2026-05-01 13:44 | 39.14360 | 12.32587 | 34172 ft | 406 kts | 334° |
| 2026-05-01 13:44 | 39.16995 | 12.31414 | 34545 ft | 405 kts | 334° |
| 2026-05-01 13:44 | 39.19691 | 12.30214 | 34890 ft | 405 kts | 335° |
| 2026-05-01 13:44 | 39.22350 | 12.29028 | 35189 ft | 405 kts | 335° |
| 2026-05-01 13:45 | 39.25011 | 12.27840 | 35484 ft | 405 kts | 335° |
| 2026-05-01 13:45 | 39.27637 | 12.26667 | 35773 ft | 405 kts | 335° |
| 2026-05-01 13:45 | 39.30302 | 12.25476 | 36068 ft | 405 kts | 335° |
| 2026-05-01 13:45 | 39.32964 | 12.24285 | 36341 ft | 405 kts | 335° |
| 2026-05-01 13:46 | 39.35628 | 12.23092 | 36612 ft | 405 kts | 335° |
| 2026-05-01 13:46 | 39.38291 | 12.21899 | 36880 ft | 405 kts | 335° |
| 2026-05-01 13:46 | 39.40960 | 12.20703 | 37219 ft | 404 kts | 336° |
| 2026-05-01 13:46 | 39.43611 | 12.19513 | 37544 ft | 403 kts | 336° |
| 2026-05-01 13:47 | 39.46257 | 12.18324 | 37785 ft | 403 kts | 336° |
| 2026-05-01 13:47 | 39.48908 | 12.17132 | 38030 ft | 403 kts | 337° |
| 2026-05-01 13:47 | 39.51560 | 12.15938 | 38221 ft | 404 kts | 337° |
| 2026-05-01 13:48 | 39.56854 | 12.13554 | 38202 ft | 402 kts | 337° |
| 2026-05-01 13:48 | 39.62132 | 12.11172 | 38214 ft | 402 kts | 337° |
| 2026-05-01 13:49 | 39.67408 | 12.08788 | 38208 ft | 400 kts | 337° |
| 2026-05-01 13:49 | 39.72672 | 12.06405 | 38212 ft | 401 kts | 337° |
| 2026-05-01 13:50 | 39.77922 | 12.04025 | 38196 ft | 401 kts | 337° |
| 2026-05-01 13:50 | 39.83195 | 12.01630 | 38224 ft | 402 kts | 337° |
| 2026-05-01 13:51 | 39.88444 | 11.99243 | 38215 ft | 401 kts | 337° |
| 2026-05-01 13:51 | 39.93748 | 11.96827 | 38220 ft | 401 kts | 337° |
| 2026-05-01 13:52 | 39.99009 | 11.94426 | 38221 ft | 401 kts | 337° |
| 2026-05-01 13:52 | 40.04239 | 11.92035 | 38222 ft | 401 kts | 337° |
| 2026-05-01 13:53 | 40.09510 | 11.89622 | 38221 ft | 401 kts | 337° |
| 2026-05-01 13:53 | 40.17407 | 11.85999 | 38225 ft | 401 kts | 337° |
| 2026-05-01 13:54 | 40.22677 | 11.83577 | 38225 ft | 401 kts | 337° |
| 2026-05-01 13:54 | 40.27937 | 11.81154 | 38224 ft | 401 kts | 337° |
| 2026-05-01 13:55 | 40.33200 | 11.78727 | 38237 ft | 401 kts | 338° |
| 2026-05-01 13:55 | 40.38466 | 11.76294 | 38226 ft | 401 kts | 338° |
| 2026-05-01 13:56 | 40.43704 | 11.73870 | 38225 ft | 401 kts | 338° |
| 2026-05-01 13:56 | 40.48959 | 11.71434 | 38224 ft | 401 kts | 338° |
| 2026-05-01 13:57 | 40.54219 | 11.68991 | 38245 ft | 401 kts | 338° |
| 2026-05-01 13:57 | 40.59501 | 11.66535 | 38216 ft | 402 kts | 338° |
| 2026-05-01 13:58 | 40.64762 | 11.64084 | 38220 ft | 400 kts | 338° |
| 2026-05-01 13:58 | 40.70008 | 11.61636 | 38225 ft | 400 kts | 338° |
| 2026-05-01 13:59 | 40.75249 | 11.59186 | 38225 ft | 400 kts | 338° |
| 2026-05-01 13:59 | 40.80518 | 11.56720 | 38225 ft | 404 kts | 339° |
| 2026-05-01 14:00 | 40.85830 | 11.54228 | 38227 ft | 405 kts | 339° |
| 2026-05-01 14:00 | 40.91136 | 11.51735 | 38227 ft | 405 kts | 339° |
| 2026-05-01 14:01 | 40.96442 | 11.49238 | 38226 ft | 405 kts | 339° |
| 2026-05-01 14:01 | 41.01730 | 11.46745 | 38228 ft | 406 kts | 339° |
| 2026-05-01 14:02 | 41.07053 | 11.44232 | 38225 ft | 406 kts | 339° |
| 2026-05-01 14:02 | 41.12371 | 11.41716 | 38222 ft | 406 kts | 339° |
| 2026-05-01 14:03 | 41.17690 | 11.39196 | 38221 ft | 406 kts | 339° |
| 2026-05-01 14:03 | 41.23006 | 11.36673 | 38245 ft | 406 kts | 340° |
| 2026-05-01 14:04 | 41.28320 | 11.34146 | 38220 ft | 404 kts | 340° |
| 2026-05-01 14:04 | 41.32722 | 11.32049 | 38222 ft | 405 kts | 340° |
| 2026-05-01 14:05 | 41.38923 | 11.29090 | 38201 ft | 405 kts | 340° |
| 2026-05-01 14:05 | 41.44181 | 11.26578 | 38228 ft | 405 kts | 340° |
| 2026-05-01 14:06 | 41.49466 | 11.24048 | 38220 ft | 403 kts | 340° |
| 2026-05-01 14:06 | 41.54744 | 11.21516 | 38224 ft | 403 kts | 340° |
| 2026-05-01 14:07 | 41.60009 | 11.18987 | 38221 ft | 403 kts | 340° |
| 2026-05-01 14:08 | 41.67917 | 11.15179 | 38229 ft | 402 kts | 341° |
| 2026-05-01 14:08 | 41.73155 | 11.12651 | 38222 ft | 400 kts | 341° |
| 2026-05-01 14:09 | 41.78397 | 11.10117 | 38221 ft | 400 kts | 341° |
| 2026-05-01 14:09 | 41.83641 | 11.07578 | 38222 ft | 401 kts | 341° |
| 2026-05-01 14:10 | 41.88877 | 11.05038 | 38227 ft | 400 kts | 341° |
| 2026-05-01 14:10 | 41.94108 | 11.02496 | 38219 ft | 399 kts | 341° |
| 2026-05-01 14:11 | 41.99331 | 10.99954 | 38229 ft | 399 kts | 341° |
| 2026-05-01 14:11 | 42.07169 | 10.96130 | 38232 ft | 399 kts | 341° |
| 2026-05-01 14:12 | 42.12371 | 10.93587 | 38235 ft | 398 kts | 341° |
| 2026-05-01 14:12 | 42.17542 | 10.91054 | 38236 ft | 398 kts | 341° |
| 2026-05-01 14:13 | 42.21910 | 10.88912 | 38231 ft | 398 kts | 341° |
| 2026-05-01 14:13 | 42.27962 | 10.85937 | 38239 ft | 398 kts | 341° |
| 2026-05-01 14:14 | 42.33166 | 10.83375 | 38239 ft | 398 kts | 341° |
| 2026-05-01 14:14 | 42.38365 | 10.80811 | 38239 ft | 398 kts | 341° |
| 2026-05-01 14:15 | 42.43570 | 10.78240 | 38239 ft | 398 kts | 341° |
| 2026-05-01 14:15 | 42.48776 | 10.75662 | 38240 ft | 398 kts | 341° |
| 2026-05-01 14:16 | 42.53978 | 10.73083 | 38245 ft | 398 kts | 341° |
| 2026-05-01 14:16 | 42.59162 | 10.70508 | 38247 ft | 397 kts | 341° |
| 2026-05-01 14:17 | 42.64346 | 10.67930 | 38247 ft | 397 kts | 341° |
| 2026-05-01 14:17 | 42.69495 | 10.65364 | 38247 ft | 397 kts | 341° |
| 2026-05-01 14:18 | 42.74683 | 10.62775 | 38258 ft | 397 kts | 341° |
| 2026-05-01 14:18 | 42.79020 | 10.60605 | 38246 ft | 395 kts | 341° |
| 2026-05-01 14:19 | 42.85007 | 10.57607 | 38252 ft | 396 kts | 341° |
| 2026-05-01 14:19 | 42.90198 | 10.55002 | 38260 ft | 399 kts | 341° |
| 2026-05-01 14:20 | 42.98025 | 10.51127 | 38249 ft | 398 kts | 346° |
| 2026-05-01 14:21 | 43.03454 | 10.49659 | 38245 ft | 397 kts | 349° |
| 2026-05-01 14:21 | 43.08876 | 10.48222 | 38259 ft | 398 kts | 349° |
| 2026-05-01 14:22 | 43.16999 | 10.46080 | 38255 ft | 398 kts | 349° |
| 2026-05-01 14:22 | 43.21523 | 10.44886 | 38269 ft | 399 kts | 349° |
| 2026-05-01 14:23 | 43.26966 | 10.43447 | 38265 ft | 399 kts | 349° |
| 2026-05-01 14:23 | 43.32397 | 10.42008 | 38273 ft | 399 kts | 349° |
| 2026-05-01 14:24 | 43.37852 | 10.40560 | 38276 ft | 399 kts | 349° |
| 2026-05-01 14:24 | 43.43307 | 10.39110 | 38276 ft | 399 kts | 349° |
| 2026-05-01 14:25 | 43.48764 | 10.37656 | 38275 ft | 399 kts | 349° |
| 2026-05-01 14:25 | 43.54214 | 10.36202 | 38277 ft | 399 kts | 349° |
| 2026-05-01 14:26 | 43.62409 | 10.34010 | 38266 ft | 401 kts | 349° |
| 2026-05-01 14:27 | 43.67886 | 10.32542 | 38265 ft | 401 kts | 349° |
| 2026-05-01 14:27 | 43.73337 | 10.31079 | 37508 ft | 399 kts | 349° |
| 2026-05-01 14:28 | 43.78713 | 10.29632 | 36648 ft | 387 kts | 349° |
| 2026-05-01 14:28 | 43.81387 | 10.28913 | 36136 ft | 398 kts | 349° |
| 2026-05-01 14:28 | 43.84065 | 10.27861 | 35303 ft | 405 kts | 337° |
| 2026-05-01 14:28 | 43.86616 | 10.26128 | 34480 ft | 411 kts | 337° |
| 2026-05-01 14:29 | 43.89217 | 10.24412 | 33667 ft | 417 kts | 337° |
| 2026-05-01 14:29 | 43.91838 | 10.22653 | 32893 ft | 420 kts | 336° |
| 2026-05-01 14:30 | 43.99767 | 10.17250 | 31255 ft | 428 kts | 336° |
| 2026-05-01 14:30 | 44.02439 | 10.15419 | 30979 ft | 428 kts | 336° |
| 2026-05-01 14:30 | 44.05061 | 10.13388 | 30482 ft | 428 kts | 327° |
| 2026-05-01 14:31 | 44.08923 | 10.07104 | 29111 ft | 432 kts | 309° |
| 2026-05-01 14:31 | 44.10638 | 10.03696 | 28532 ft | 428 kts | 309° |
| 2026-05-01 14:31 | 44.12321 | 10.00302 | 27963 ft | 423 kts | 309° |
| 2026-05-01 14:31 | 44.13976 | 9.96932 | 27388 ft | 420 kts | 309° |
| 2026-05-01 14:32 | 44.15614 | 9.93579 | 26813 ft | 417 kts | 308° |
| 2026-05-01 14:32 | 44.17237 | 9.90248 | 26265 ft | 414 kts | 308° |
| 2026-05-01 14:32 | 44.18838 | 9.86958 | 25692 ft | 411 kts | 308° |
| 2026-05-01 14:32 | 44.20438 | 9.83665 | 25141 ft | 409 kts | 308° |
| 2026-05-01 14:33 | 44.22026 | 9.80395 | 24585 ft | 406 kts | 308° |
| 2026-05-01 14:33 | 44.23605 | 9.77137 | 24054 ft | 405 kts | 308° |
| 2026-05-01 14:33 | 44.25184 | 9.73879 | 23404 ft | 405 kts | 308° |
| 2026-05-01 14:33 | 44.26755 | 9.70630 | 22825 ft | 403 kts | 308° |
| 2026-05-01 14:34 | 44.28296 | 9.67441 | 22282 ft | 400 kts | 308° |
| 2026-05-01 14:34 | 44.29842 | 9.64239 | 21772 ft | 397 kts | 308° |
| 2026-05-01 14:34 | 44.31405 | 9.61085 | 21225 ft | 393 kts | 313° |
| 2026-05-01 14:34 | 44.33402 | 9.58577 | 20629 ft | 384 kts | 331° |
| 2026-05-01 14:35 | 44.35674 | 9.56651 | 20176 ft | 380 kts | 332° |
| 2026-05-01 14:35 | 44.37918 | 9.54754 | 19708 ft | 377 kts | 332° |
| 2026-05-01 14:35 | 44.40159 | 9.52883 | 19296 ft | 374 kts | 333° |
| 2026-05-01 14:35 | 44.42360 | 9.51061 | 19109 ft | 363 kts | 333° |
| 2026-05-01 14:36 | 44.44509 | 9.49288 | 18904 ft | 354 kts | 333° |
| 2026-05-01 14:36 | 44.46608 | 9.47558 | 18727 ft | 345 kts | 333° |
| 2026-05-01 14:36 | 44.48651 | 9.45875 | 18528 ft | 336 kts | 333° |
| 2026-05-01 14:36 | 44.50639 | 9.44235 | 18325 ft | 329 kts | 333° |
| 2026-05-01 14:37 | 44.52633 | 9.42587 | 17679 ft | 335 kts | 333° |
| 2026-05-01 14:37 | 44.54627 | 9.40938 | 17229 ft | 332 kts | 333° |
| 2026-05-01 14:37 | 44.56590 | 9.39313 | 16745 ft | 322 kts | 333° |
| 2026-05-01 14:37 | 44.58500 | 9.37735 | 16260 ft | 314 kts | 334° |
| 2026-05-01 14:38 | 44.60517 | 9.36756 | 15695 ft | 303 kts | 356° |
| 2026-05-01 14:38 | 44.62587 | 9.36512 | 15278 ft | 299 kts | 358° |
| 2026-05-01 14:38 | 44.64644 | 9.36261 | 14815 ft | 302 kts | 358° |
| 2026-05-01 14:38 | 44.66748 | 9.36021 | 14343 ft | 297 kts | 358° |
| 2026-05-01 14:39 | 44.68787 | 9.35800 | 13847 ft | 292 kts | 358° |
| 2026-05-01 14:39 | 44.70790 | 9.35593 | 13344 ft | 286 kts | 359° |
| 2026-05-01 14:39 | 44.72719 | 9.35395 | 13071 ft | 275 kts | 359° |
| 2026-05-01 14:39 | 44.74611 | 9.35203 | 12965 ft | 267 kts | 359° |
| 2026-05-01 14:40 | 44.76443 | 9.35017 | 12815 ft | 267 kts | 359° |
| 2026-05-01 14:40 | 44.78302 | 9.34828 | 12629 ft | 266 kts | 359° |
| 2026-05-01 14:40 | 44.80120 | 9.34951 | 12423 ft | 261 kts | 18° |
| 2026-05-01 14:40 | 44.81680 | 9.36146 | 12207 ft | 255 kts | 44° |
| 2026-05-01 14:41 | 44.82694 | 9.38173 | 12051 ft | 255 kts | 67° |
| 2026-05-01 14:41 | 44.83090 | 9.40606 | 11891 ft | 257 kts | 82° |
| 2026-05-01 14:41 | 44.83288 | 9.43127 | 11702 ft | 258 kts | 82° |
| 2026-05-01 14:41 | 44.83461 | 9.45641 | 11528 ft | 258 kts | 83° |
| 2026-05-01 14:42 | 44.83715 | 9.48130 | 11265 ft | 255 kts | 69° |
| 2026-05-01 14:42 | 44.84544 | 9.50314 | 11114 ft | 253 kts | 59° |
| 2026-05-01 14:42 | 44.85424 | 9.52436 | 10943 ft | 248 kts | 60° |
| 2026-05-01 14:42 | 44.86270 | 9.54466 | 10782 ft | 243 kts | 59° |
| 2026-05-01 14:43 | 44.87130 | 9.56518 | 10604 ft | 237 kts | 59° |
| 2026-05-01 14:43 | 44.87955 | 9.58478 | 10442 ft | 231 kts | 59° |
| 2026-05-01 14:43 | 44.88847 | 9.60323 | 10256 ft | 227 kts | 45° |
| 2026-05-01 14:43 | 44.90214 | 9.61410 | 9990 ft | 229 kts | 17° |
| 2026-05-01 14:44 | 44.91786 | 9.61518 | 9796 ft | 231 kts | 360° |
| 2026-05-01 14:44 | 44.95037 | 9.61247 | 9535 ft | 234 kts | 1° |
| 2026-05-01 14:44 | 44.96628 | 9.61023 | 9420 ft | 229 kts | 349° |
| 2026-05-01 14:45 | 44.98018 | 9.59944 | 9192 ft | 233 kts | 319° |
| 2026-05-01 14:45 | 44.99035 | 9.55720 | 8843 ft | 242 kts | 267° |
| 2026-05-01 14:45 | 44.98932 | 9.53319 | 8732 ft | 248 kts | 267° |
| 2026-05-01 14:46 | 44.98818 | 9.50870 | 8547 ft | 250 kts | 267° |
| 2026-05-01 14:46 | 44.98568 | 9.45897 | 8063 ft | 255 kts | 266° |
| 2026-05-01 14:46 | 44.98437 | 9.43408 | 7892 ft | 254 kts | 266° |
| 2026-05-01 14:47 | 44.98305 | 9.40922 | 7722 ft | 253 kts | 266° |
| 2026-05-01 14:47 | 44.98175 | 9.38481 | 7563 ft | 251 kts | 266° |
| 2026-05-01 14:47 | 44.98249 | 9.36034 | 7360 ft | 247 kts | 288° |
| 2026-05-01 14:48 | 45.00507 | 9.32875 | 6961 ft | 232 kts | 346° |
| 2026-05-01 14:48 | 45.02097 | 9.32509 | 6870 ft | 232 kts | 354° |
| 2026-05-01 14:48 | 45.05348 | 9.32016 | 6271 ft | 237 kts | 356° |
| 2026-05-01 14:49 | 45.08553 | 9.31614 | 5785 ft | 230 kts | 357° |
| 2026-05-01 14:49 | 45.11623 | 9.31237 | 5441 ft | 213 kts | 358° |
| 2026-05-01 14:50 | 45.13505 | 9.31026 | 5349 ft | 198 kts | 358° |
| 2026-05-01 14:50 | 45.17171 | 9.30626 | 4906 ft | 198 kts | 358° |
| 2026-05-01 14:51 | 45.18538 | 9.30487 | 4742 ft | 197 kts | 359° |
| 2026-05-01 14:51 | 45.21265 | 9.30200 | 4474 ft | 194 kts | 357° |
| 2026-05-01 14:52 | 45.23961 | 9.29906 | 4098 ft | 194 kts | 357° |
| 2026-05-01 14:52 | 45.25310 | 9.29765 | 3850 ft | 194 kts | 357° |
| 2026-05-01 14:52 | 45.27907 | 9.29484 | 3401 ft | 181 kts | 357° |
| 2026-05-01 14:53 | 45.29116 | 9.29350 | 3183 ft | 169 kts | 357° |
| 2026-05-01 14:53 | 45.30266 | 9.29229 | 2992 ft | 161 kts | 357° |
| 2026-05-01 14:53 | 45.31362 | 9.29114 | 2760 ft | 156 kts | 358° |
| 2026-05-01 14:53 | 45.32429 | 9.29002 | 2539 ft | 155 kts | 358° |
| 2026-05-01 14:54 | 45.33487 | 9.28889 | 2379 ft | 152 kts | 357° |
| 2026-05-01 14:54 | 45.34534 | 9.28774 | 2164 ft | 151 kts | 357° |
| 2026-05-01 14:54 | 45.35579 | 9.28662 | 1935 ft | 150 kts | 357° |
| 2026-05-01 14:54 | 45.36627 | 9.28548 | 1747 ft | 151 kts | 358° |
| 2026-05-01 14:55 | 45.37668 | 9.28439 | 1552 ft | 151 kts | 358° |
| 2026-05-01 14:55 | 45.38705 | 9.28324 | 1339 ft | 150 kts | 359° |
| 2026-05-01 14:55 | 45.39734 | 9.28222 | 1138 ft | 149 kts | 357° |
| 2026-05-01 14:55 | 45.40778 | 9.28107 | 937 ft | 147 kts | 356° |
| 2026-05-01 14:56 | 45.41786 | 9.27998 | 744 ft | 146 kts | 356° |
| 2026-05-01 14:56 | 45.42789 | 9.27891 | 549 ft | 143 kts | 355° |
| 2026-05-01 14:56 | 45.43780 | 9.27785 | 380 ft | 139 kts | 356° |
| 2026-05-01 14:56 | 45.44599 | 9.27696 | 365 ft | 90 kts | 356° |
| 2026-05-01 14:57 | 45.45046 | 9.27653 | 364 ft | 57 kts | 355° |
| 2026-05-01 14:57 | 45.45422 | 9.27740 | 366 ft | 0 kts | 30° |
| 2026-05-01 14:57 | 45.45427 | 9.27746 | 365 ft | 3 kts | 39° |
| 2026-05-01 14:58 | 45.45450 | 9.27772 | 363 ft | 5 kts | 39° |
| 2026-05-01 14:58 | 45.45490 | 9.27803 | 366 ft | 8 kts | 21° |
| 2026-05-01 14:58 | 45.45553 | 9.27815 | 362 ft | 10 kts | 360° |
| 2026-05-01 14:58 | 45.45635 | 9.27816 | 362 ft | 13 kts | 1° |
| 2026-05-01 14:59 | 45.45736 | 9.27818 | 362 ft | 16 kts | 0° |
| 2026-05-01 14:59 | 45.45827 | 9.27824 | 366 ft | 10 kts | 17° |
| 2026-05-01 14:59 | 45.45890 | 9.27847 | 362 ft | 0 kts | 2° |
| 2026-05-01 14:59 | 45.45904 | 9.27848 | 362 ft | 4 kts | 2° |
| 2026-05-01 15:00 | 45.45970 | 9.27848 | 366 ft | 0 kts | 359° |